Ana Sayfa
METAR-TAF:

METAR-TAF

Havaalanları :

Aransas County Airport

Rockport, Teksas, Amerika Birleşik Devletleri

Enlem: 28-05-01N, Boylam: 097-02-47W, yükseklik: 7 m

Güncel hava durumu gözlemi

Rapor saat 12:41 UTC de 18 dakika önce yapıldı.
Rüzgar güneydoğudan 6 kt
Sıcaklık 28°C
Nem 89%
Basınç 1019 hPa
Görüş mesafesi: 6.4 km
1000 ft yükseklikte parçalı bulutlu
Pus

METAR: KRKP 271241Z AUTO 14006KT 4SM BR SCT010 28/26 A3010 RMK AO2 T02780261

Saat: 07:59 (12:59 UTC)


TAF: eksik

4.000'den fazla havaalanı için hava durumu gözlemleri ve tahminleri (METAR ve TAF raporları).

Kullanılabilir istasyonlar harita üzerinde sarı ve kırmızı noktalarla gösterilir.

İstasyonun adını görmek için fareyi noktanın üzerinde gezdirin.

Sonrasında hava gözlem ve tahminlerini görmek için tıklayın.

Haritayı değiştirmek için: yaklaştırmak için siyah artı işaretli yeşil düğmeye ve uzaklaştırmak için de eksi işaretli düğmeye hızla tıklayın; bitişik haritalar için yeşil okları kullanın.


METAR-TAF: